Time;durP1;ratioP1;P1;durP2;ratioP2;P2;SDS_P1;SDS_P2;PMS_P1;PMS_P2;Temp;Humidity;BMP_temperature;BMP_pressure;BME280_temperature;BME280_humidity;BME280_pressure;Samples;Min_cycle;Max_cycle;Signal;HPM_P1;HPM_P2
2021/03/21 00:07:51;;;;;;;;;;;;;;;8.07;49.19;100545.88;4639112;24;19935;-77
2021/03/21 00:10:22;;;;;;;;;;;;;;;8.06;49.22;100543.28;4843462;29;19973;-76
2021/03/21 00:12:51;;;;;;;;;;;;;;;8.05;49.46;100541.53;4842992;29;20433;-75
2021/03/21 00:19:01;;;;;;;;;;;;;;;8.03;49.69;100533.66;4843163;29;20026;-75
2021/03/21 00:21:30;;;;;;;;;;;;;;;8.02;49.71;100531.91;4843105;29;19929;-75
2021/03/21 00:24:01;;;;;;;;;;;;;;;8.01;50.03;100538.09;4843094;29;20383;-75
2021/03/21 00:26:30;;;;;;;;;;;;;;;7.99;49.95;100534.63;4843130;29;20404;-75
2021/03/21 00:29:00;;;;;;;;;;;;;;;7.99;50.18;100532.00;4843683;29;20011;-75
2021/03/21 00:31:30;;;;;;;;;;;;;;;7.97;49.92;100513.59;4843039;29;20493;-75
2021/03/21 00:33:59;;;;;;;;;;;;;;;8.03;48.81;100509.94;4842913;29;20298;-75
2021/03/21 00:36:29;;;;;;;;;;;;;;;8.12;47.93;100511.53;4842580;29;20263;-75
2021/03/21 00:38:59;;;;;;;;;;;;;;;8.17;46.81;100512.31;4842669;29;20394;-75
2021/03/21 00:41:30;;;;;;;;;;;;;;;8.23;45.35;100503.41;4842364;29;19928;-75
2021/03/21 00:44:01;;;;;;;;;;;;;;;8.26;44.24;100498.94;4842533;29;19929;-75
2021/03/21 00:46:31;;;;;;;;;;;;;;;8.28;43.79;100497.13;4842595;29;20397;-75
2021/03/21 00:49:02;;;;;;;;;;;;;;;8.33;42.83;100489.13;4842585;29;19928;-75
2021/03/21 00:51:32;;;;;;;;;;;;;;;8.35;42.34;100489.94;4842684;29;20398;-75
2021/03/21 00:54:02;;;;;;;;;;;;;;;8.39;42.10;100489.00;4842517;29;20421;-75
2021/03/21 00:56:34;;;;;;;;;;;;;;;8.42;41.86;100488.91;4842056;29;20358;-76
2021/03/21 00:59:03;;;;;;;;;;;;;;;8.46;41.90;100485.34;4842446;29;20390;-75
2021/03/21 01:01:33;;;;;;;;;;;;;;;8.42;41.39;100474.88;4842288;29;20051;-76
2021/03/21 01:04:04;;;;;;;;;;;;;;;8.32;42.45;100474.19;4842169;29;19977;-75
2021/03/21 01:06:34;;;;;;;;;;;;;;;8.27;43.71;100478.72;4842591;29;19928;-75
2021/03/21 01:09:06;;;;;;;;;;;;;;;8.23;44.67;100461.22;4842070;29;19928;-75
2021/03/21 01:11:37;;;;;;;;;;;;;;;8.28;44.73;100460.22;4842116;29;20347;-75
2021/03/21 01:14:07;;;;;;;;;;;;;;;8.35;43.66;100463.56;4842689;29;20474;-75
2021/03/21 01:16:39;;;;;;;;;;;;;;;8.39;42.75;100456.47;4842494;29;20371;-76
2021/03/21 01:19:13;;;;;;;;;;;;;;;8.43;42.33;100453.75;4841813;29;19936;-76
2021/03/21 01:21:44;;;;;;;;;;;;;;;8.47;41.53;100454.59;4842135;29;19968;-76
2021/03/21 01:24:18;;;;;;;;;;;;;;;8.51;41.14;100461.50;4841725;29;20400;-75
2021/03/21 01:27:27;;;;;;;;;;;;;;;8.54;40.67;100448.25;4842164;29;20385;-75
2021/03/21 01:29:56;;;;;;;;;;;;;;;8.54;40.60;100439.47;4825356;29;20291;-75
2021/03/21 01:32:25;;;;;;;;;;;;;;;8.54;40.32;100444.75;4841919;29;20403;-75
2021/03/21 01:34:54;;;;;;;;;;;;;;;8.44;40.86;100450.22;4841992;29;20362;-75
2021/03/21 01:37:22;;;;;;;;;;;;;;;8.38;41.30;100441.56;4841497;29;19968;-75
2021/03/21 01:39:52;;;;;;;;;;;;;;;8.31;41.63;100441.72;4841617;29;20291;-75
2021/03/21 01:42:48;;;;;;;;;;;;;;;8.25;42.42;100417.28;4842041;29;19988;-76
2021/03/21 01:45:33;;;;;;;;;;;;;;;8.23;42.52;100426.97;4842268;29;19932;-76
2021/03/21 01:48:05;;;;;;;;;;;;;;;8.20;43.58;100429.69;4840836;29;19928;-75
2021/03/21 01:54:18;;;;;;;;;;;;;;;8.15;44.75;100421.88;4842459;29;20269;-76
2021/03/21 02:01:23;;;;;;;;;;;;;;;8.09;45.47;100403.56;4803760;29;19936;-76
2021/03/21 02:03:53;;;;;;;;;;;;;;;8.07;45.76;100403.59;4803081;29;20064;-76
2021/03/21 02:06:41;;;;;;;;;;;;;;;8.06;45.88;100409.75;4802885;29;20349;-76
2021/03/21 02:09:16;;;;;;;;;;;;;;;8.06;46.32;100408.91;4803044;29;19929;-75
2021/03/21 02:12:09;;;;;;;;;;;;;;;8.04;46.21;100405.47;4803088;29;20427;-75
2021/03/21 02:15:34;;;;;;;;;;;;;;;8.02;46.23;100410.72;4803169;29;20432;-75
2021/03/21 02:18:08;;;;;;;;;;;;;;;8.02;47.15;100407.25;4802573;29;20399;-76
2021/03/21 02:20:55;;;;;;;;;;;;;;;8.00;47.06;100403.75;4802909;29;20387;-75
2021/03/21 02:23:35;;;;;;;;;;;;;;;7.98;47.86;100403.81;4802945;29;19929;-76
2021/03/21 02:26:17;;;;;;;;;;;;;;;7.97;47.35;100402.06;4803052;29;20445;-75
2021/03/21 02:28:52;;;;;;;;;;;;;;;7.96;48.07;100406.47;4803250;29;19929;-75
2021/03/21 02:31:26;;;;;;;;;;;;;;;7.96;48.00;100400.34;4802926;29;20346;-75
2021/03/21 02:33:57;;;;;;;;;;;;;;;7.96;47.98;100401.22;4815619;29;20027;-75
2021/03/21 02:36:33;;;;;;;;;;;;;;;7.94;48.17;100394.25;4841310;29;19996;-75
2021/03/21 02:39:08;;;;;;;;;;;;;;;7.95;48.16;100395.97;4841416;29;20455;-76
2021/03/21 02:41:40;;;;;;;;;;;;;;;7.93;48.28;100390.75;4841183;29;20410;-75
2021/03/21 02:44:12;;;;;;;;;;;;;;;7.93;48.37;100384.59;4841834;29;20294;-76
2021/03/21 02:46:49;;;;;;;;;;;;;;;7.93;48.42;100395.13;4841390;29;19934;-75
2021/03/21 02:52:21;;;;;;;;;;;;;;;7.90;48.76;100388.16;4841356;29;19939;-75
2021/03/21 02:54:54;;;;;;;;;;;;;;;7.90;48.82;100385.53;4841550;29;20031;-75
2021/03/21 02:57:24;;;;;;;;;;;;;;;7.89;48.98;100388.22;4841995;29;19961;-75
2021/03/21 02:59:55;;;;;;;;;;;;;;;7.89;49.26;100393.47;4843234;29;20357;-76
2021/03/21 03:02:28;;;;;;;;;;;;;;;7.88;49.38;100378.56;4844631;29;20378;-75
2021/03/21 03:05:01;;;;;;;;;;;;;;;7.88;49.31;100383.84;4844512;29;20455;-75
2021/03/21 03:07:36;;;;;;;;;;;;;;;7.87;49.32;100377.72;4844860;29;20019;-75
2021/03/21 03:10:10;;;;;;;;;;;;;;;7.86;49.57;100381.25;4845009;29;20466;-75
2021/03/21 03:12:43;;;;;;;;;;;;;;;7.85;50.08;100382.13;4844716;29;19994;-75
2021/03/21 03:18:59;;;;;;;;;;;;;;;7.84;49.46;100379.53;4844342;29;19980;-75
2021/03/21 03:21:30;;;;;;;;;;;;;;;7.85;50.17;100389.19;4828385;29;20326;-76
2021/03/21 03:24:04;;;;;;;;;;;;;;;7.85;49.63;100391.81;4844844;29;20390;-75
2021/03/21 03:26:38;;;;;;;;;;;;;;;7.83;49.82;100383.94;4844490;29;19929;-75
2021/03/21 03:32:36;;;;;;;;;;;;;;;7.87;49.81;100375.06;4843716;29;20402;-75
2021/03/21 03:35:09;;;;;;;;;;;;;;;7.95;47.83;100380.19;4844132;29;19935;-75
2021/03/21 03:37:40;;;;;;;;;;;;;;;8.02;46.84;100373.00;4844368;29;20003;-75
2021/03/21 03:40:11;;;;;;;;;;;;;;;8.07;45.27;100374.63;4844085;29;20039;-75
2021/03/21 03:42:45;;;;;;;;;;;;;;;8.11;44.07;100376.28;4843638;29;19932;-75
2021/03/21 03:49:04;;;;;;;;;;;;;;;8.22;42.44;100378.69;4843598;29;19932;-75
2021/03/21 03:51:41;;;;;;;;;;;;;;;8.26;42.40;100368.91;4843977;29;19932;-75
2021/03/21 03:57:35;;;;;;;;;;;;;;;8.32;41.00;100384.59;4843239;29;19933;-75
2021/03/21 04:00:13;;;;;;;;;;;;;;;8.34;40.49;100374.88;4843453;29;20417;-76
2021/03/21 04:02:45;;;;;;;;;;;;;;;8.24;42.18;100376.84;4843339;29;20417;-75
2021/03/21 04:05:19;;;;;;;;;;;;;;;8.16;43.56;100377.97;4843471;29;20064;-75
2021/03/21 04:07:58;;;;;;;;;;;;;;;8.10;44.62;100379.84;4843448;29;20500;-75
2021/03/21 04:14:10;;;;;;;;;;;;;;;8.24;42.66;100386.53;4843754;29;20352;-75
2021/03/21 04:16:43;;;;;;;;;;;;;;;8.29;41.78;100388.16;4843132;29;20377;-75
2021/03/21 04:19:12;;;;;;;;;;;;;;;8.35;41.39;100397.69;4843318;29;20254;-75
2021/03/21 04:21:46;;;;;;;;;;;;;;;8.38;40.83;100394.09;4843495;29;20355;-75
2021/03/21 04:27:35;;;;;;;;;;;;;;;8.43;39.94;100390.47;4842810;29;20024;-74
2021/03/21 04:30:14;;;;;;;;;;;;;;;8.38;39.75;100410.81;4843196;29;20382;-75
2021/03/21 04:32:44;;;;;;;;;;;;;;;8.29;40.53;100400.47;4843070;29;19928;-74
2021/03/21 04:35:20;;;;;;;;;;;;;;;8.21;41.33;100394.50;4842831;29;19948;-75
2021/03/21 04:37:53;;;;;;;;;;;;;;;8.14;41.99;100392.03;4843020;29;19929;-75
2021/03/21 04:40:24;;;;;;;;;;;;;;;8.08;42.12;100393.94;4842408;29;20379;-75
2021/03/21 04:42:58;;;;;;;;;;;;;;;8.02;43.08;100387.03;4842419;29;20386;-74
2021/03/21 04:45:31;;;;;;;;;;;;;;;7.96;43.18;100392.44;4843173;29;19932;-75
2021/03/21 04:48:04;;;;;;;;;;;;;;;7.92;44.04;100398.69;4842393;29;20256;-75
2021/03/21 04:50:35;;;;;;;;;;;;;;;7.88;44.22;100407.53;4843008;29;20004;-75
2021/03/21 04:53:07;;;;;;;;;;;;;;;7.84;44.60;100409.41;4842298;29;20485;-75
2021/03/21 05:06:42;;;;;;;;;;;;;;;7.73;46.12;100438.56;4841907;29;20450;-75
2021/03/21 05:09:16;;;;;;;;;;;;;;;7.71;46.21;100437.75;4841787;29;20398;-75
2021/03/21 05:15:30;;;;;;;;;;;;;;;7.70;47.01;100458.84;4842824;29;19935;-76
2021/03/21 05:18:06;;;;;;;;;;;;;;;7.68;46.82;100465.91;4842769;29;19928;-75
2021/03/21 05:24:18;;;;;;;;;;;;;;;7.69;47.23;100488.69;4842425;29;20431;-75
2021/03/21 05:31:22;;;;;;;;;;;;;;;7.71;47.30;100510.59;4786728;29;19936;-75
2021/03/21 05:33:52;;;;;;;;;;;;;;;7.71;47.32;100510.59;4785249;30;19952;-75
2021/03/21 05:36:27;;;;;;;;;;;;;;;7.69;47.46;100512.41;4784941;30;19952;-75
2021/03/21 05:38:58;;;;;;;;;;;;;;;7.68;47.96;100516.78;4785357;30;19930;-75
2021/03/21 05:41:52;;;;;;;;;;;;;;;7.69;47.80;100520.28;4785554;30;19934;-75
2021/03/21 05:47:50;;;;;;;;;;;;;;;7.71;47.91;100527.28;4785287;30;19941;-75
2021/03/21 05:50:39;;;;;;;;;;;;;;;7.75;47.71;100541.25;4784796;30;20352;-75
2021/03/21 09:35:48;;;;;;;;;;;;;;;26.42;13.46;100827.00;5274058;24;19963;-75
2021/03/21 09:45:26;;;;;;;;;;;;;;;27.00;12.75;100825.22;4841511;29;20011;-75
2021/03/21 10:08:36;;;;;;;;;;;;;;;27.64;11.58;100856.19;4731373;30;20563;-76
2021/03/21 10:24:13;;;;;;;;;;;;;;;26.90;11.39;100868.69;4713412;29;20274;-78
2021/03/21 10:27:03;;;;;;;;;;;;;;;26.50;11.51;100861.56;4760694;30;19941;-77
2021/03/21 10:29:50;;;;;;;;;;;;;;;26.13;11.95;100870.41;4737681;30;19934;-75
2021/03/21 10:32:22;;;;;;;;;;;;;;;25.95;12.55;100867.47;4781671;29;19929;-73
2021/03/21 10:34:57;;;;;;;;;;;;;;;25.28;13.15;100865.22;4804106;29;20431;-73
2021/03/21 10:37:38;;;;;;;;;;;;;;;25.43;13.11;100867.59;4805206;29;20459;-73
2021/03/21 10:40:10;;;;;;;;;;;;;;;25.62;12.83;100878.53;4802735;29;19955;-76
2021/03/21 10:42:42;;;;;;;;;;;;;;;25.02;13.09;100872.94;4836041;29;20352;-75
2021/03/21 10:45:10;;;;;;;;;;;;;;;24.90;12.64;100885.66;4864982;29;24620;-75
2021/03/21 10:47:58;;;;;;;;;;;;;;;24.38;13.36;100890.06;4867100;29;20375;-75
2021/03/21 10:50:44;;;;;;;;;;;;;;;24.31;13.45;100890.56;4867828;29;20012;-73
2021/03/21 10:53:18;;;;;;;;;;;;;;;24.41;13.64;100887.09;4850561;29;19936;-73
2021/03/21 10:56:00;;;;;;;;;;;;;;;24.51;13.78;100902.41;4864904;29;19942;-73
2021/03/21 10:58:32;;;;;;;;;;;;;;;24.36;13.29;100917.19;4867590;29;19932;-73
2021/03/21 11:01:19;;;;;;;;;;;;;;;23.84;13.83;100901.56;4865813;29;20393;-73
2021/03/21 11:03:51;;;;;;;;;;;;;;;24.23;13.57;100897.59;4861447;29;20487;-74
2021/03/21 11:06:21;;;;;;;;;;;;;;;24.35;13.59;100908.25;4863049;29;19935;-73
2021/03/21 11:08:49;;;;;;;;;;;;;;;24.13;14.09;100894.81;4850786;29;20086;-73
2021/03/21 11:11:18;;;;;;;;;;;;;;;24.60;14.75;100910.72;4846762;29;19932;-73
2021/03/21 11:13:49;;;;;;;;;;;;;;;24.56;15.21;100909.28;4845256;29;19936;-72
2021/03/21 11:16:19;;;;;;;;;;;;;;;24.92;15.02;100907.19;4867443;29;19938;-72
2021/03/21 11:18:50;;;;;;;;;;;;;;;25.88;14.60;100905.09;4866357;29;19942;-72
2021/03/21 11:21:26;;;;;;;;;;;;;;;25.29;15.23;100912.09;4846914;29;19935;-73
2021/03/21 11:24:02;;;;;;;;;;;;;;;24.90;15.17;100909.16;4854841;29;19931;-73
2021/03/21 11:26:35;;;;;;;;;;;;;;;26.73;14.85;100900.13;4855944;29;20007;-73
2021/03/21 11:29:12;;;;;;;;;;;;;;;27.66;14.81;100902.22;4866877;29;19939;-73
2021/03/21 11:31:41;;;;;;;;;;;;;;;28.07;15.00;100908.16;4848566;29;19943;-71
2021/03/21 11:34:15;;;;;;;;;;;;;;;25.30;14.71;100911.13;4864638;29;20406;-71
2021/03/21 11:36:43;;;;;;;;;;;;;;;24.16;15.00;100913.47;4870608;29;19935;-70
2021/03/21 11:39:18;;;;;;;;;;;;;;;23.50;15.76;100920.47;4859688;29;19935;-71
2021/03/21 11:41:47;;;;;;;;;;;;;;;22.89;15.50;100912.63;4854741;29;20466;-70
2021/03/21 11:44:18;;;;;;;;;;;;;;;22.46;16.13;100927.53;4863108;29;19939;-70
2021/03/21 11:46:45;;;;;;;;;;;;;;;22.60;16.49;100944.50;4860983;29;20459;-70
2021/03/21 11:49:13;;;;;;;;;;;;;;;23.16;16.16;100931.22;4866148;29;20034;-70
2021/03/21 11:51:41;;;;;;;;;;;;;;;23.93;15.38;100926.13;4863330;29;19928;-70
2021/03/21 11:54:14;;;;;;;;;;;;;;;24.79;14.39;100937.13;4855933;29;19928;-69
2021/03/21 11:56:47;;;;;;;;;;;;;;;24.93;14.15;100936.81;4864237;29;19950;-71
2021/03/21 11:59:16;;;;;;;;;;;;;;;25.26;13.58;100932.16;4840295;29;19961;-71
2021/03/21 12:01:45;;;;;;;;;;;;;;;24.95;14.33;100937.53;4862302;29;19942;-69
2021/03/21 12:04:19;;;;;;;;;;;;;;;24.98;13.74;100939.13;4867783;29;19982;-71
2021/03/21 12:06:48;;;;;;;;;;;;;;;27.20;12.71;100933.78;4840429;29;20031;-73
2021/03/21 12:09:21;;;;;;;;;;;;;;;29.20;12.49;100926.72;4859225;29;19932;-73
2021/03/21 12:11:49;;;;;;;;;;;;;;;32.06;10.66;100916.47;4851425;29;19936;-72
2021/03/21 12:14:45;;;;;;;;;;;;;;;33.84;10.10;100918.00;4861841;29;19966;-78
2021/03/21 12:17:30;;;;;;;;;;;;;;;32.88;9.88;100929.63;4847161;29;20306;-74
2021/03/21 12:20:18;;;;;;;;;;;;;;;34.72;9.96;100939.94;4860549;29;19936;-75
2021/03/21 12:22:49;;;;;;;;;;;;;;;35.92;9.50;100946.50;4848288;29;20550;-75
2021/03/21 12:25:19;;;;;;;;;;;;;;;35.94;9.56;100936.97;4844291;29;20409;-75
2021/03/21 12:27:47;;;;;;;;;;;;;;;32.58;8.23;100950.53;4861240;29;19939;-72
2021/03/21 12:30:16;;;;;;;;;;;;;;;31.00;8.42;100949.34;4865740;29;19954;-72
2021/03/21 12:32:44;;;;;;;;;;;;;;;30.77;9.41;100960.97;4864787;29;19932;-73
2021/03/21 12:35:34;;;;;;;;;;;;;;;31.16;8.71;100948.50;4865017;29;19927;-74
2021/03/21 12:38:03;;;;;;;;;;;;;;;30.34;8.55;100942.94;4862412;29;20457;-73
2021/03/21 12:58:10;;;;;;;;;;;;;;;30.42;8.12;100957.47;4824411;29;19931;-69
2021/03/21 13:00:42;;;;;;;;;;;;;;;30.95;8.06;100960.81;4823674;29;19928;-68
2021/03/21 13:03:22;;;;;;;;;;;;;;;31.28;7.89;100949.88;4837790;29;19928;-68
2021/03/21 13:05:54;;;;;;;;;;;;;;;30.51;7.53;100947.47;4837403;29;19967;-67
2021/03/21 13:08:27;;;;;;;;;;;;;;;30.23;8.32;100953.19;4823068;29;19933;-68
2021/03/21 13:11:01;;;;;;;;;;;;;;;30.28;8.26;100956.25;4841484;29;20323;-68
2021/03/21 13:21:33;;;;;;;;;;;;;;;32.65;7.89;100964.34;4842142;29;19995;-70
2021/03/21 13:24:11;;;;;;;;;;;;;;;32.41;7.54;100958.88;4840998;29;20365;-74
2021/03/21 13:31:22;;;;;;;;;;;;;;;33.67;7.19;100965.84;4811904;29;19977;-75
2021/03/21 13:38:23;;;;;;;;;;;;;;;31.70;8.12;100963.47;4841675;29;19936;-70
2021/03/21 13:40:58;;;;;;;;;;;;;;;31.64;8.42;100961.41;4825281;29;20343;-69
2021/03/21 13:43:34;;;;;;;;;;;;;;;30.93;8.65;100976.50;4824989;29;20035;-68
2021/03/21 14:10:35;;;;;;;;;;;;;;;31.22;9.52;100956.03;4841693;29;20551;-76
2021/03/21 14:13:06;;;;;;;;;;;;;;;33.34;9.12;100958.84;4841665;29;19928;-75
2021/03/21 14:25:26;;;;;;;;;;;;;;;28.63;12.19;100962.44;4878045;24;19932;-78
2021/03/21 14:27:53;;;;;;;;;;;;;;;29.35;11.55;100969.75;4857191;29;19935;-77
2021/03/21 14:30:22;;;;;;;;;;;;;;;29.40;11.27;100976.41;4864982;29;19938;-78
2021/03/21 14:32:49;;;;;;;;;;;;;;;28.61;12.12;100976.22;4862982;29;19936;-77
2021/03/21 14:35:18;;;;;;;;;;;;;;;29.06;11.35;100974.44;4850869;29;19940;-76
2021/03/21 14:38:02;;;;;;;;;;;;;;;28.90;10.89;100975.16;4852270;29;19942;-76
2021/03/21 14:40:28;;;;;;;;;;;;;;;28.03;11.78;100977.44;4866033;29;20311;-76
2021/03/21 14:42:55;;;;;;;;;;;;;;;28.07;11.91;100984.28;4846847;29;19932;-77
2021/03/21 14:45:24;;;;;;;;;;;;;;;28.07;12.32;100976.13;4849956;29;19936;-77
2021/03/21 14:47:51;;;;;;;;;;;;;;;28.99;11.78;100976.09;4851418;29;19939;-77
2021/03/21 14:50:21;;;;;;;;;;;;;;;29.10;11.70;100973.13;4848006;29;19989;-77
2021/03/21 14:52:50;;;;;;;;;;;;;;;28.99;11.98;100985.09;4848423;29;20031;-77
2021/03/21 14:55:19;;;;;;;;;;;;;;;28.52;12.19;100982.59;4847932;29;19965;-76
2021/03/21 14:57:45;;;;;;;;;;;;;;;28.29;12.67;100982.19;4865377;29;19991;-76
2021/03/21 15:00:17;;;;;;;;;;;;;;;28.03;13.24;100980.16;4866936;29;19939;-76
2021/03/21 15:02:45;;;;;;;;;;;;;;;27.66;13.10;100979.13;4870831;29;20424;-75
2021/03/21 15:05:14;;;;;;;;;;;;;;;27.46;13.10;100982.91;4866069;29;20009;-76
2021/03/21 15:07:41;;;;;;;;;;;;;;;27.53;13.49;100973.19;4870750;29;19975;-76
2021/03/21 15:10:08;;;;;;;;;;;;;;;27.39;13.82;100985.34;4865463;29;19937;-75
2021/03/21 15:12:36;;;;;;;;;;;;;;;27.24;13.27;100989.50;4866384;29;19928;-74
2021/03/21 15:15:06;;;;;;;;;;;;;;;26.85;13.17;100993.09;4872361;29;19931;-76
2021/03/21 15:17:33;;;;;;;;;;;;;;;27.03;13.52;100985.09;4868997;29;20405;-76
2021/03/21 15:20:03;;;;;;;;;;;;;;;26.95;13.55;100996.69;4868515;29;19932;-73
2021/03/21 15:22:29;;;;;;;;;;;;;;;27.48;13.37;100998.06;4871565;29;19956;-76
2021/03/21 15:24:57;;;;;;;;;;;;;;;27.68;13.15;100984.41;4847311;29;19932;-76
2021/03/21 15:27:24;;;;;;;;;;;;;;;27.54;13.03;100990.31;4855343;29;20035;-76
2021/03/21 15:29:51;;;;;;;;;;;;;;;27.25;12.78;100993.94;4852527;29;19932;-76
2021/03/21 15:32:18;;;;;;;;;;;;;;;27.23;12.84;100999.50;4868857;29;20481;-76
2021/03/21 15:34:45;;;;;;;;;;;;;;;27.38;13.14;100990.94;4871751;29;19932;-76
2021/03/21 15:37:13;;;;;;;;;;;;;;;27.25;13.38;100985.78;4849930;29;19936;-76
2021/03/21 15:39:40;;;;;;;;;;;;;;;27.28;12.87;100989.06;4868521;29;19978;-76
2021/03/21 15:42:07;;;;;;;;;;;;;;;27.35;12.76;101000.19;4872022;29;19969;-75
2021/03/21 15:44:36;;;;;;;;;;;;;;;27.41;12.89;101001.50;4871578;29;19944;-75
2021/03/21 15:47:03;;;;;;;;;;;;;;;26.59;13.41;101012.59;4871451;29;19936;-75
2021/03/21 15:49:30;;;;;;;;;;;;;;;26.20;12.99;101003.53;4850898;29;19939;-75
2021/03/21 15:51:57;;;;;;;;;;;;;;;25.72;13.58;101016.69;4866850;29;19961;-75
2021/03/21 15:54:25;;;;;;;;;;;;;;;25.55;13.33;101012.75;4872159;29;19933;-75
2021/03/21 15:56:52;;;;;;;;;;;;;;;25.50;13.53;101013.16;4864232;29;19932;-75
2021/03/21 15:59:19;;;;;;;;;;;;;;;25.31;13.93;101023.84;4863208;29;19932;-74
2021/03/21 16:01:46;;;;;;;;;;;;;;;23.36;13.84;101021.44;4843664;29;19935;-76
2021/03/21 16:04:14;;;;;;;;;;;;;;;23.15;15.75;101025.78;4857986;29;19932;-69
2021/03/21 16:06:41;;;;;;;;;;;;;;;21.84;15.34;101025.38;4845808;29;19932;-70
2021/03/21 16:09:10;;;;;;;;;;;;;;;21.26;15.95;101020.34;4858763;29;19936;-73
2021/03/21 16:19:35;;;;;;;;;;;;;;;22.59;16.43;101029.91;4853974;29;19931;-76
2021/03/21 16:22:08;;;;;;;;;;;;;;;21.55;16.53;101023.78;4858122;29;19932;-78
2021/03/21 16:24:35;;;;;;;;;;;;;;;20.93;16.40;101036.94;4862648;29;19938;-75
2021/03/21 16:27:03;;;;;;;;;;;;;;;19.86;17.16;101027.59;4842301;29;19946;-75
2021/03/21 16:29:30;;;;;;;;;;;;;;;18.96;17.59;101042.78;4844395;29;19936;-73
2021/03/21 16:31:57;;;;;;;;;;;;;;;18.70;18.23;101050.44;4861505;29;20076;-77
2021/03/21 16:34:25;;;;;;;;;;;;;;;18.65;18.43;101042.69;4838189;29;20034;-75
2021/03/21 16:36:53;;;;;;;;;;;;;;;18.84;18.77;101058.56;4843946;29;20025;-74
2021/03/21 16:39:33;;;;;;;;;;;;;;;17.98;19.74;101053.50;4864127;29;19943;-72
2021/03/21 16:42:00;;;;;;;;;;;;;;;17.80;19.81;101060.66;4846904;29;20407;-72
2021/03/21 16:44:28;;;;;;;;;;;;;;;17.39;20.29;101055.66;4861474;29;19936;-71
2021/03/21 16:46:56;;;;;;;;;;;;;;;17.43;20.34;101060.75;4880640;24;19932;-75
2021/03/21 16:56:31;;;;;;;;;;;;;;;16.88;21.63;101071.50;4861672;29;20382;-67
2021/03/21 16:59:00;;;;;;;;;;;;;;;16.58;22.37;101083.56;4861318;29;20418;-75
2021/03/21 17:01:34;;;;;;;;;;;;;;;16.40;22.51;101079.97;4861003;29;20398;-75
2021/03/21 17:04:05;;;;;;;;;;;;;;;16.27;22.68;101082.34;4860092;29;19936;-75
2021/03/21 17:06:35;;;;;;;;;;;;;;;16.06;22.77;101081.53;4860659;29;20398;-75
2021/03/21 17:09:05;;;;;;;;;;;;;;;15.94;22.95;101076.72;4860760;29;20399;-75
2021/03/21 17:11:48;;;;;;;;;;;;;;;15.78;23.33;101084.50;4844161;29;20473;-75
2021/03/21 17:14:18;;;;;;;;;;;;;;;15.60;23.82;101092.38;4860469;29;20003;-74
2021/03/21 17:20:46;;;;;;;;;;;;;;;15.24;24.27;101108.97;4842063;29;20049;-74
2021/03/21 18:58:36;;;;;;;;;;;;;;;14.18;31.15;101207.06;4883362;24;20374;-76
2021/03/21 19:01:07;;;;;;;;;;;;;;;14.10;31.17;101212.66;4862852;29;19984;-76
2021/03/21 19:03:39;;;;;;;;;;;;;;;14.04;31.40;101204.00;4862956;29;19928;-75
2021/03/21 19:31:30;;;;;;;;;;;;;;;13.57;31.49;101245.44;4817535;29;19939;-72
2021/03/21 19:33:57;;;;;;;;;;;;;;;13.51;32.23;101235.00;4816696;29;19933;-74
2021/03/21 19:39:56;;;;;;;;;;;;;;;13.51;37.94;101245.63;4825714;29;19944;-77
2021/03/21 19:42:43;;;;;;;;;;;;;;;13.65;38.64;101250.50;4807957;29;20060;-76
2021/03/21 19:45:24;;;;;;;;;;;;;;;13.62;37.83;101250.63;4826557;29;19937;-78
2021/03/21 19:48:22;;;;;;;;;;;;;;;13.53;37.54;101250.91;4810037;29;19928;-76
2021/03/21 19:51:33;;;;;;;;;;;;;;;13.48;37.58;101258.16;4820640;29;19939;-77
2021/03/21 19:54:00;;;;;;;;;;;;;;;13.40;36.73;101256.59;4816895;29;20562;-78
2021/03/21 19:56:27;;;;;;;;;;;;;;;13.37;36.60;101261.13;4811127;29;19940;-82
2021/03/21 19:59:42;;;;;;;;;;;;;;;;;;;;;
2021/03/21 21:13:05;;;;;;;;;;;;;;;12.22;34.79;101282.88;5577304;24;20040;-77
2021/03/21 21:15:35;;;;;;;;;;;;;;;12.16;34.88;101282.19;4842323;29;20293;-76
2021/03/21 21:21:52;;;;;;;;;;;;;;;12.07;34.95;101289.47;4845921;29;20446;-77
2021/03/21 21:24:22;;;;;;;;;;;;;;;12.03;35.09;101286.91;4842306;29;20338;-75
2021/03/21 21:26:52;;;;;;;;;;;;;;;11.99;34.94;101282.59;4842177;29;19951;-76
2021/03/21 21:29:23;;;;;;;;;;;;;;;11.93;35.07;101284.47;4841671;29;19959;-76
2021/03/21 21:31:53;;;;;;;;;;;;;;;11.90;35.10;101289.00;4842032;29;20286;-76
2021/03/21 21:34:22;;;;;;;;;;;;;;;11.86;34.89;101293.50;4841839;29;20384;-76
2021/03/21 21:36:55;;;;;;;;;;;;;;;11.83;34.95;101293.53;4842025;29;20435;-76
2021/03/21 21:39:27;;;;;;;;;;;;;;;11.79;34.87;101286.56;4825705;29;20343;-76
2021/03/21 21:41:57;;;;;;;;;;;;;;;11.74;34.98;101294.66;4842238;29;19928;-75
2021/03/21 21:44:28;;;;;;;;;;;;;;;11.71;35.02;101299.16;4841560;29;20399;-76
2021/03/21 21:46:59;;;;;;;;;;;;;;;11.65;35.01;101297.53;4841754;29;20431;-76
2021/03/21 21:49:28;;;;;;;;;;;;;;;11.60;35.24;101292.31;4842006;29;20255;-76
2021/03/21 21:51:57;;;;;;;;;;;;;;;11.56;34.99;101295.09;4841901;29;20374;-76
2021/03/21 21:54:26;;;;;;;;;;;;;;;11.55;35.32;101301.28;4841748;29;20018;-76
2021/03/21 21:56:55;;;;;;;;;;;;;;;11.50;34.87;101301.38;4841726;29;19934;-76
2021/03/21 21:59:25;;;;;;;;;;;;;;;11.48;35.02;101304.97;4841446;29;20347;-76
2021/03/21 22:01:55;;;;;;;;;;;;;;;11.43;35.00;101300.63;4841746;29;20390;-76
2021/03/21 22:04:24;;;;;;;;;;;;;;;11.39;35.53;101316.66;4841320;29;19929;-76
2021/03/21 22:06:53;;;;;;;;;;;;;;;11.35;35.02;101299.94;4842048;29;19932;-76
2021/03/21 22:09:23;;;;;;;;;;;;;;;11.30;35.14;101307.13;4841481;29;20414;-75
2021/03/21 22:11:52;;;;;;;;;;;;;;;11.28;35.50;101309.81;4841393;29;19928;-75
2021/03/21 22:14:21;;;;;;;;;;;;;;;11.24;35.20;101309.88;4841184;29;19935;-75
2021/03/21 22:16:55;;;;;;;;;;;;;;;11.21;35.38;101316.13;4841962;29;19929;-75
2021/03/21 22:19:26;;;;;;;;;;;;;;;11.17;35.36;101314.44;4841446;29;19936;-75
2021/03/21 22:21:56;;;;;;;;;;;;;;;11.15;35.28;101320.66;4841782;29;19929;-75
2021/03/21 22:24:26;;;;;;;;;;;;;;;11.10;35.27;101315.50;4841241;29;20040;-75
2021/03/21 22:30:58;;;;;;;;;;;;;;;11.03;35.35;101316.50;4841676;29;19931;-75
2021/03/21 22:33:31;;;;;;;;;;;;;;;10.96;35.51;101319.28;4841360;29;20417;-76
2021/03/21 22:36:01;;;;;;;;;;;;;;;10.93;35.54;101323.75;4841345;29;20386;-76
2021/03/21 22:38:33;;;;;;;;;;;;;;;10.90;35.73;101339.69;4841309;29;19936;-75
2021/03/21 22:41:03;;;;;;;;;;;;;;;10.86;35.35;101340.66;4841124;29;20367;-76
2021/03/21 22:43:32;;;;;;;;;;;;;;;10.84;35.21;101339.81;4841376;29;19929;-75
2021/03/21 22:46:03;;;;;;;;;;;;;;;10.80;35.68;101344.28;4841588;29;20399;-75
2021/03/21 22:48:34;;;;;;;;;;;;;;;10.76;35.61;101345.25;4841385;29;20313;-75
2021/03/21 22:51:05;;;;;;;;;;;;;;;10.71;35.59;101350.63;4841168;29;19933;-75
2021/03/21 22:57:56;;;;;;;;;;;;;;;10.62;36.04;101353.44;4841370;29;19932;-76
2021/03/21 23:00:29;;;;;;;;;;;;;;;10.57;35.38;101347.34;4841587;29;20471;-76
2021/03/21 23:02:59;;;;;;;;;;;;;;;10.55;35.93;101354.47;4841493;29;20313;-76
2021/03/21 23:05:32;;;;;;;;;;;;;;;10.50;35.71;101361.59;4840633;29;20394;-76
2021/03/21 23:12:07;;;;;;;;;;;;;;;10.42;35.71;101367.03;4841474;29;19935;-75
2021/03/21 23:14:47;;;;;;;;;;;;;;;10.39;35.56;101359.16;4840578;29;20548;-75
2021/03/21 23:17:17;;;;;;;;;;;;;;;10.33;35.78;101352.13;4842721;29;20242;-75
2021/03/21 23:19:47;;;;;;;;;;;;;;;10.31;35.68;101361.88;4844294;29;19936;-75
2021/03/21 23:22:18;;;;;;;;;;;;;;;10.28;35.70;101362.81;4844044;29;20005;-75
2021/03/21 23:24:47;;;;;;;;;;;;;;;10.22;36.18;101373.47;4844304;29;20355;-75
2021/03/21 23:27:16;;;;;;;;;;;;;;;10.19;35.71;101372.66;4844286;29;20023;-75
2021/03/21 23:29:46;;;;;;;;;;;;;;;10.15;36.04;101382.38;4844173;29;20375;-75
2021/03/21 23:32:15;;;;;;;;;;;;;;;10.11;36.36;101376.28;4844253;29;19980;-75
2021/03/21 23:34:46;;;;;;;;;;;;;;;10.10;36.33;101389.53;4843576;29;19971;-76
2021/03/21 23:41:05;;;;;;;;;;;;;;;10.03;36.08;101401.94;4844529;29;19932;-75
2021/03/21 23:43:35;;;;;;;;;;;;;;;9.98;35.70;101398.53;4844031;29;20007;-75
2021/03/21 23:46:05;;;;;;;;;;;;;;;9.95;35.99;101394.16;4844069;29;20491;-75